createdAt,value
2017-07-29T00:00:15.320Z,15.06
2017-07-29T00:01:15.944Z,15.04
2017-07-29T00:02:16.556Z,15.00
2017-07-29T00:03:17.170Z,14.99
2017-07-29T00:04:18.095Z,14.84
2017-07-29T00:05:18.721Z,14.79
2017-07-29T00:06:19.354Z,14.77
2017-07-29T00:07:19.977Z,14.70
2017-07-29T00:08:20.608Z,14.69
2017-07-29T00:09:21.535Z,14.68
2017-07-29T00:10:22.157Z,14.79
2017-07-29T00:11:22.790Z,14.68
2017-07-29T00:12:23.712Z,14.68
2017-07-29T00:13:24.338Z,14.66
2017-07-29T00:14:25.007Z,14.72
2017-07-29T00:15:25.633Z,14.72
2017-07-29T00:16:26.258Z,14.62
2017-07-29T00:17:27.133Z,14.65
2017-07-29T00:18:27.764Z,14.63
2017-07-29T00:19:28.433Z,14.65
2017-07-29T00:20:29.061Z,14.69
2017-07-29T00:21:29.681Z,14.66
2017-07-29T00:22:30.579Z,14.72
2017-07-29T00:23:31.195Z,14.66
2017-07-29T00:24:32.118Z,14.69
2017-07-29T00:25:32.737Z,14.68
2017-07-29T00:26:33.636Z,14.63
2017-07-29T00:27:34.257Z,14.70
2017-07-29T00:28:34.872Z,14.63
2017-07-29T00:29:35.788Z,14.66
2017-07-29T00:30:36.405Z,14.68
2017-07-29T00:31:37.022Z,14.69
2017-07-29T00:32:37.636Z,14.66
2017-07-29T00:33:38.250Z,14.77
2017-07-29T00:34:39.116Z,14.66
2017-07-29T00:35:39.732Z,14.73
2017-07-29T00:36:40.351Z,14.69
2017-07-29T00:37:41.003Z,14.65
2017-07-29T00:38:41.621Z,14.62
2017-07-29T00:39:42.536Z,14.68
2017-07-29T00:40:43.451Z,14.72
2017-07-29T00:41:44.373Z,14.73
2017-07-29T00:42:44.987Z,14.69
2017-07-29T00:43:45.854Z,14.62
2017-07-29T00:44:46.475Z,14.66
2017-07-29T00:45:47.090Z,14.66
2017-07-29T00:46:47.713Z,14.68
2017-07-29T00:47:48.332Z,14.68
2017-07-29T00:48:49.246Z,14.65
2017-07-29T00:49:49.867Z,14.63
2017-07-29T00:50:50.486Z,14.63
2017-07-29T00:51:51.100Z,14.63
2017-07-29T00:52:51.715Z,14.60
2017-07-29T00:53:52.585Z,14.51
2017-07-29T00:54:53.449Z,14.50
2017-07-29T00:55:54.066Z,14.51
2017-07-29T00:56:54.682Z,14.50
2017-07-29T00:57:55.329Z,14.51
2017-07-29T00:58:55.947Z,14.58
2017-07-29T00:59:56.813Z,14.47
2017-07-29T01:00:57.432Z,14.48
2017-07-29T01:01:58.045Z,14.48
2017-07-29T01:02:58.660Z,14.37
2017-07-29T01:03:59.277Z,14.37
2017-07-29T01:05:00.195Z,14.40
2017-07-29T01:06:00.812Z,14.32
2017-07-29T01:07:01.429Z,14.29
2017-07-29T01:08:02.295Z,14.26
2017-07-29T01:09:03.193Z,14.22
2017-07-29T01:10:03.810Z,14.26
2017-07-29T01:11:04.432Z,14.10
2017-07-29T01:12:05.044Z,14.14
2017-07-29T01:13:05.666Z,14.07
2017-07-29T01:14:06.535Z,13.95
2017-07-29T01:15:07.186Z,13.93
2017-07-29T01:16:07.804Z,13.95
2017-07-29T01:17:08.421Z,13.99
2017-07-29T01:18:09.037Z,13.97
2017-07-29T01:19:09.953Z,13.99
2017-07-29T01:20:10.573Z,14.07
2017-07-29T01:21:11.190Z,14.08
2017-07-29T01:22:12.054Z,14.12
2017-07-29T01:23:12.971Z,14.07
2017-07-29T01:24:13.593Z,14.18
2017-07-29T01:25:14.243Z,14.14
2017-07-29T01:26:14.858Z,14.15
2017-07-29T01:27:15.474Z,14.12
2017-07-29T01:28:16.398Z,14.11
2017-07-29T01:29:17.006Z,14.11
2017-07-29T01:30:17.661Z,14.12
2017-07-29T01:31:18.272Z,14.05
2017-07-29T01:32:18.895Z,14.11
2017-07-29T01:33:19.760Z,14.07
2017-07-29T01:34:20.411Z,14.07
2017-07-29T01:35:21.035Z,13.96
2017-07-29T01:36:21.645Z,13.93
2017-07-29T01:37:22.260Z,13.99
2017-07-29T01:38:23.130Z,13.93
2017-07-29T01:39:23.743Z,13.97
2017-07-29T01:40:24.359Z,13.86
2017-07-29T01:41:24.974Z,13.95
2017-07-29T01:42:25.590Z,13.90
2017-07-29T01:43:26.462Z,13.92
2017-07-29T01:44:27.077Z,14.00
2017-07-29T01:45:27.693Z,13.93
2017-07-29T01:46:28.349Z,14.03
2017-07-29T01:47:28.960Z,13.95
2017-07-29T01:48:29.877Z,14.03
2017-07-29T01:49:30.492Z,13.96
2017-07-29T01:50:31.107Z,13.95
2017-07-29T01:51:32.023Z,13.92
2017-07-29T01:52:32.644Z,13.95
2017-07-29T01:53:33.257Z,13.95
2017-07-29T01:54:33.873Z,13.97
2017-07-29T01:55:34.495Z,13.95
2017-07-29T01:56:35.363Z,13.97
2017-07-29T01:57:35.983Z,13.95
2017-07-29T01:58:36.596Z,13.86
2017-07-29T01:59:37.252Z,13.85
2017-07-29T02:00:37.907Z,13.92
2017-07-29T02:01:38.822Z,13.90
2017-07-29T02:02:39.478Z,13.87
2017-07-29T02:03:40.096Z,13.92
2017-07-29T02:04:40.709Z,13.87
2017-07-29T02:05:41.631Z,13.85
2017-07-29T02:06:42.548Z,13.95
2017-07-29T02:07:43.162Z,13.95
2017-07-29T02:08:43.786Z,13.87
2017-07-29T02:09:44.400Z,13.97
2017-07-29T02:10:45.020Z,13.97
2017-07-29T02:11:45.940Z,13.90
2017-07-29T02:12:46.588Z,13.86
2017-07-29T02:13:47.211Z,13.95
2017-07-29T02:14:47.831Z,13.86
2017-07-29T02:15:48.449Z,13.90
2017-07-29T02:16:49.315Z,13.86
2017-07-29T02:17:49.963Z,13.85
2017-07-29T02:18:50.879Z,13.90
2017-07-29T02:19:51.493Z,13.89
2017-07-29T02:20:52.114Z,13.86
2017-07-29T02:21:52.728Z,13.85
2017-07-29T02:22:53.345Z,13.87
2017-07-29T02:23:54.211Z,13.83
2017-07-29T02:24:54.829Z,13.90
2017-07-29T02:25:55.443Z,13.87
2017-07-29T02:26:56.058Z,13.81
2017-07-29T02:27:56.673Z,13.83
2017-07-29T02:28:57.590Z,13.89
2017-07-29T02:29:58.209Z,13.93
2017-07-29T02:30:58.826Z,13.86
2017-07-29T02:31:59.440Z,13.90
2017-07-29T02:33:00.308Z,13.90
2017-07-29T02:34:01.173Z,13.78
2017-07-29T02:35:02.088Z,13.81
2017-07-29T02:36:02.703Z,13.75
2017-07-29T02:37:03.322Z,13.81
2017-07-29T02:38:03.942Z,13.79
2017-07-29T02:39:04.565Z,13.74
2017-07-29T02:40:05.431Z,13.83
2017-07-29T02:41:06.044Z,13.70
2017-07-29T02:42:06.660Z,13.77
2017-07-29T02:43:07.276Z,13.78
2017-07-29T02:44:07.922Z,13.77
2017-07-29T02:45:08.845Z,13.78
2017-07-29T02:46:09.456Z,13.72
2017-07-29T02:47:10.072Z,13.75
2017-07-29T02:48:10.687Z,13.74
2017-07-29T02:49:11.310Z,13.67
2017-07-29T02:50:12.178Z,13.68
2017-07-29T02:51:13.088Z,13.74
2017-07-29T02:52:13.713Z,13.68
2017-07-29T02:53:14.325Z,13.71
2017-07-29T02:54:14.937Z,13.75
2017-07-29T02:55:15.554Z,13.71
2017-07-29T02:56:16.420Z,13.79
2017-07-29T02:57:17.045Z,13.83
2017-07-29T02:58:17.657Z,13.86
2017-07-29T02:59:18.272Z,13.79
2017-07-29T03:00:18.888Z,13.72
2017-07-29T03:01:19.754Z,13.86
2017-07-29T03:02:20.367Z,13.81
2017-07-29T03:03:20.988Z,13.71
2017-07-29T03:04:21.630Z,13.75
2017-07-29T03:05:22.245Z,13.72
2017-07-29T03:06:23.110Z,13.67
2017-07-29T03:07:23.725Z,13.63
2017-07-29T03:08:24.345Z,13.63
2017-07-29T03:09:25.210Z,13.62
2017-07-29T03:10:25.828Z,13.67
2017-07-29T03:11:26.449Z,13.70
2017-07-29T03:12:27.068Z,13.72
2017-07-29T03:13:27.681Z,13.72
2017-07-29T03:14:28.545Z,13.74
2017-07-29T03:15:29.409Z,13.67
2017-07-29T03:16:30.276Z,13.70
2017-07-29T03:17:30.891Z,13.59
2017-07-29T03:18:31.505Z,13.67
2017-07-29T03:19:32.123Z,13.67
2017-07-29T03:20:33.040Z,13.65
2017-07-29T03:21:33.659Z,13.67
2017-07-29T03:22:34.270Z,13.59
2017-07-29T03:23:35.137Z,13.70
2017-07-29T03:24:36.051Z,13.59
2017-07-29T03:25:36.666Z,13.67
2017-07-29T03:26:37.287Z,13.56
2017-07-29T03:27:37.901Z,13.59
2017-07-29T03:28:38.523Z,13.56
2017-07-29T03:29:39.436Z,13.50
2017-07-29T03:30:40.054Z,13.53
2017-07-29T03:31:40.666Z,13.57
2017-07-29T03:32:41.283Z,13.60
2017-07-29T03:33:41.903Z,13.57
2017-07-29T03:34:42.768Z,13.60
2017-07-29T03:35:43.636Z,13.59
2017-07-29T03:36:44.502Z,13.56
2017-07-29T03:37:45.126Z,13.63
2017-07-29T03:38:45.737Z,13.57
2017-07-29T03:39:46.353Z,13.56
2017-07-29T03:40:46.968Z,13.57
2017-07-29T03:41:47.917Z,13.56
2017-07-29T03:42:48.532Z,13.60
2017-07-29T03:43:49.158Z,13.63
2017-07-29T03:44:49.778Z,13.60
2017-07-29T03:45:50.389Z,13.60
2017-07-29T03:46:51.305Z,13.60
2017-07-29T03:47:51.920Z,13.62
2017-07-29T03:48:52.534Z,13.57
2017-07-29T03:49:53.182Z,13.59
2017-07-29T03:50:53.796Z,13.59
2017-07-29T03:51:54.695Z,13.59
2017-07-29T03:52:55.310Z,13.60
2017-07-29T03:53:55.924Z,13.56
2017-07-29T03:54:56.844Z,13.52
2017-07-29T03:55:57.709Z,13.52
2017-07-29T03:56:58.325Z,13.49
2017-07-29T03:57:59.242Z,13.59
2017-07-29T03:59:00.162Z,13.52
2017-07-29T04:00:00.776Z,13.53
2017-07-29T04:01:01.391Z,13.54
2017-07-29T04:02:02.005Z,13.59
2017-07-29T04:03:02.621Z,13.53
2017-07-29T04:04:03.486Z,13.56
2017-07-29T04:05:04.101Z,13.57
2017-07-29T04:06:04.718Z,13.50
2017-07-29T04:07:05.333Z,13.54
2017-07-29T04:08:05.949Z,13.59
2017-07-29T04:09:06.866Z,13.57
2017-07-29T04:10:07.480Z,13.57
2017-07-29T04:11:08.126Z,13.57
2017-07-29T04:12:08.748Z,13.49
2017-07-29T04:13:09.359Z,13.53
2017-07-29T04:14:10.273Z,13.56
2017-07-29T04:15:10.892Z,13.59
2017-07-29T04:16:11.507Z,13.59
2017-07-29T04:17:12.132Z,13.54
2017-07-29T04:18:13.040Z,13.60
2017-07-29T04:19:13.909Z,13.57
2017-07-29T04:20:14.556Z,13.57
2017-07-29T04:21:15.176Z,13.59
2017-07-29T04:22:15.789Z,13.60
2017-07-29T04:23:16.412Z,13.62
2017-07-29T04:24:17.282Z,13.57
2017-07-29T04:25:17.902Z,13.63
2017-07-29T04:26:18.551Z,13.63
2017-07-29T04:27:19.169Z,13.56
2017-07-29T04:28:19.819Z,13.56
2017-07-29T04:29:20.734Z,13.54
2017-07-29T04:30:21.349Z,13.52
2017-07-29T04:31:21.966Z,13.62
2017-07-29T04:32:22.584Z,13.56
2017-07-29T04:33:23.502Z,13.56
2017-07-29T04:34:24.119Z,13.59
2017-07-29T04:35:24.740Z,13.52
2017-07-29T04:36:25.353Z,13.62
2017-07-29T04:37:25.968Z,13.56
2017-07-29T04:38:26.886Z,13.60
2017-07-29T04:39:27.503Z,13.57
2017-07-29T04:40:28.125Z,13.63
2017-07-29T04:41:28.740Z,13.72
2017-07-29T04:42:29.390Z,13.70
2017-07-29T04:43:30.305Z,13.75
2017-07-29T04:44:30.921Z,13.71
2017-07-29T04:45:31.544Z,13.70
2017-07-29T04:46:32.195Z,13.72
2017-07-29T04:47:32.817Z,13.70
2017-07-29T04:48:33.682Z,13.70
2017-07-29T04:49:34.333Z,13.60
2017-07-29T04:50:34.948Z,13.60
2017-07-29T04:51:35.896Z,13.57
2017-07-29T04:52:36.815Z,13.59
2017-07-29T04:53:37.680Z,13.63
2017-07-29T04:54:38.294Z,13.68
2017-07-29T04:55:38.910Z,13.68
2017-07-29T04:56:39.560Z,13.62
2017-07-29T04:57:40.179Z,13.74
2017-07-29T04:58:41.047Z,13.72
2017-07-29T04:59:41.665Z,13.68
2017-07-29T05:00:42.279Z,13.72
2017-07-29T05:01:42.896Z,13.72
2017-07-29T05:02:43.512Z,13.81
2017-07-29T05:03:44.428Z,13.72
2017-07-29T05:04:45.046Z,13.90
2017-07-29T05:05:45.700Z,13.81
2017-07-29T05:06:46.316Z,13.79
2017-07-29T05:07:46.939Z,13.89
2017-07-29T05:08:47.809Z,13.90
2017-07-29T05:09:48.424Z,13.83
2017-07-29T05:10:49.288Z,13.78
2017-07-29T05:11:49.905Z,13.78
2017-07-29T05:12:50.520Z,13.85
2017-07-29T05:13:51.138Z,13.72
2017-07-29T05:14:52.061Z,13.79
2017-07-29T05:15:53.012Z,13.77
2017-07-29T05:16:53.629Z,13.81
2017-07-29T05:17:54.245Z,13.77
2017-07-29T05:18:54.861Z,13.89
2017-07-29T05:19:55.478Z,13.77
2017-07-29T05:20:56.347Z,13.83
2017-07-29T05:21:56.967Z,13.89
2017-07-29T05:22:57.617Z,13.85
2017-07-29T05:23:58.268Z,13.99
2017-07-29T05:24:58.895Z,13.92
2017-07-29T05:25:59.800Z,13.95
2017-07-29T05:27:00.424Z,14.03
2017-07-29T05:28:01.041Z,14.08
2017-07-29T05:29:01.657Z,14.07
2017-07-29T05:30:02.581Z,14.14
2017-07-29T05:31:03.495Z,14.12
2017-07-29T05:32:04.117Z,14.33
2017-07-29T05:33:04.741Z,14.26
2017-07-29T05:34:05.360Z,14.17
2017-07-29T05:35:05.975Z,14.23
2017-07-29T05:36:06.841Z,14.36
2017-07-29T05:37:07.514Z,14.32
2017-07-29T05:38:08.117Z,14.26
2017-07-29T05:39:08.739Z,14.26
2017-07-29T05:40:09.390Z,14.32
2017-07-29T05:41:10.308Z,14.33
2017-07-29T05:42:10.931Z,14.28
2017-07-29T05:43:11.581Z,14.30
2017-07-29T05:44:12.239Z,14.35
2017-07-29T05:45:12.857Z,14.35
2017-07-29T05:46:13.721Z,14.33
2017-07-29T05:47:14.337Z,14.32
2017-07-29T05:48:14.955Z,14.37
2017-07-29T05:49:15.574Z,14.33
2017-07-29T05:50:16.225Z,14.30
2017-07-29T05:51:17.092Z,14.37
2017-07-29T05:52:17.708Z,14.33
2017-07-29T05:53:18.326Z,14.30
2017-07-29T05:54:18.942Z,14.40
2017-07-29T05:55:19.559Z,14.41
2017-07-29T05:56:20.513Z,14.36
2017-07-29T05:57:21.132Z,14.53
2017-07-29T05:58:21.748Z,14.47
2017-07-29T05:59:22.368Z,14.47
2017-07-29T06:00:22.980Z,14.48
2017-07-29T06:01:23.900Z,14.48
2017-07-29T06:02:24.525Z,14.51
2017-07-29T06:03:25.147Z,14.53
2017-07-29T06:04:25.765Z,14.59
2017-07-29T06:05:26.382Z,14.58
2017-07-29T06:06:27.252Z,14.63
2017-07-29T06:07:27.873Z,14.70
2017-07-29T06:08:28.743Z,14.73
2017-07-29T06:09:29.363Z,14.69
2017-07-29T06:10:29.987Z,14.79
2017-07-29T06:11:30.603Z,14.78
2017-07-29T06:12:31.260Z,14.82
2017-07-29T06:13:32.184Z,14.79
2017-07-29T06:14:32.838Z,14.79
2017-07-29T06:15:33.761Z,14.79
2017-07-29T06:16:34.380Z,14.82
2017-07-29T06:17:35.303Z,14.88
2017-07-29T06:18:36.170Z,14.99
2017-07-29T06:19:36.796Z,14.96
2017-07-29T06:20:37.410Z,15.02
2017-07-29T06:21:38.031Z,15.04
2017-07-29T06:22:38.955Z,15.04
2017-07-29T06:23:39.823Z,15.00
2017-07-29T06:24:40.443Z,15.04
2017-07-29T06:25:41.062Z,15.02
2017-07-29T06:26:41.982Z,15.00
2017-07-29T06:27:42.902Z,15.04
2017-07-29T06:28:43.529Z,15.04
2017-07-29T06:29:44.147Z,15.04
2017-07-29T06:30:45.021Z,15.03
2017-07-29T06:31:45.642Z,15.06
2017-07-29T06:32:46.291Z,15.11
2017-07-29T06:33:46.909Z,15.11
2017-07-29T06:34:47.535Z,15.17
2017-07-29T06:35:48.403Z,15.18
2017-07-29T06:36:49.028Z,15.14
2017-07-29T06:37:49.643Z,15.15
2017-07-29T06:38:50.260Z,15.31
2017-07-29T06:39:50.881Z,15.19
2017-07-29T06:40:51.800Z,15.31
2017-07-29T06:41:52.421Z,15.31
2017-07-29T06:42:53.047Z,15.33
2017-07-29T06:43:53.678Z,15.37
2017-07-29T06:44:54.298Z,15.31
2017-07-29T06:45:55.217Z,15.39
2017-07-29T06:46:56.087Z,15.43
2017-07-29T06:47:56.740Z,15.43
2017-07-29T06:48:57.367Z,15.40
2017-07-29T06:49:57.984Z,15.33
2017-07-29T06:50:58.614Z,15.46
2017-07-29T06:51:59.526Z,15.47
2017-07-29T06:53:00.147Z,15.44
2017-07-29T06:54:00.766Z,15.54
2017-07-29T06:55:01.387Z,15.52
2017-07-29T06:56:02.039Z,15.52
2017-07-29T06:57:02.921Z,15.52
2017-07-29T06:58:03.544Z,15.47
2017-07-29T06:59:04.221Z,15.49
2017-07-29T07:00:04.837Z,15.58
2017-07-29T07:01:05.458Z,15.52
2017-07-29T07:02:06.385Z,15.59
2017-07-29T07:03:07.001Z,15.65
2017-07-29T07:04:07.621Z,15.67
2017-07-29T07:05:08.238Z,15.64
2017-07-29T07:06:09.160Z,15.70
2017-07-29T07:07:09.812Z,15.64
2017-07-29T07:08:10.737Z,15.75
2017-07-29T07:09:11.389Z,15.76
2017-07-29T07:10:12.042Z,15.73
2017-07-29T07:11:12.661Z,15.80
2017-07-29T07:12:13.281Z,15.77
2017-07-29T07:13:14.208Z,15.72
2017-07-29T07:14:14.830Z,15.70
2017-07-29T07:15:15.448Z,15.67
2017-07-29T07:16:16.369Z,15.68
2017-07-29T07:17:16.990Z,15.72
2017-07-29T07:18:17.861Z,15.68
2017-07-29T07:19:18.485Z,15.76
2017-07-29T07:20:19.108Z,15.70
2017-07-29T07:21:20.061Z,15.77
2017-07-29T07:22:20.685Z,15.80
2017-07-29T07:23:21.303Z,15.95
2017-07-29T07:24:22.175Z,15.92
2017-07-29T07:25:23.105Z,15.88
2017-07-29T07:26:24.059Z,15.82
2017-07-29T07:27:24.987Z,15.82
2017-07-29T07:28:25.859Z,15.90
2017-07-29T07:29:26.483Z,15.90
2017-07-29T07:30:27.111Z,15.83
2017-07-29T07:31:27.802Z,15.82
2017-07-29T07:32:28.732Z,15.97
2017-07-29T07:33:29.653Z,16.01
2017-07-29T07:34:30.301Z,16.02
2017-07-29T07:35:30.919Z,16.01
2017-07-29T07:36:31.573Z,15.97
2017-07-29T07:37:32.192Z,15.95
2017-07-29T07:38:33.152Z,15.83
2017-07-29T07:39:33.773Z,15.86
2017-07-29T07:40:34.392Z,15.91
2017-07-29T07:41:35.268Z,15.83
2017-07-29T07:42:36.208Z,15.92
2017-07-29T07:43:36.903Z,15.91
2017-07-29T07:44:37.774Z,15.94
2017-07-29T07:45:38.429Z,15.86
2017-07-29T07:46:39.054Z,15.98
2017-07-29T07:47:39.669Z,16.04
2017-07-29T07:48:40.291Z,15.97
2017-07-29T07:49:41.211Z,15.97
2017-07-29T07:50:41.837Z,15.98
2017-07-29T07:51:42.460Z,15.98
2017-07-29T07:52:43.077Z,15.97
2017-07-29T07:53:43.703Z,15.84
2017-07-29T07:54:44.626Z,16.00
2017-07-29T07:55:45.248Z,15.88
2017-07-29T07:56:45.909Z,16.02
2017-07-29T07:57:46.531Z,16.09
2017-07-29T07:58:47.150Z,16.16
2017-07-29T07:59:48.075Z,16.26
2017-07-29T08:00:48.730Z,16.35
2017-07-29T08:01:49.602Z,16.41
2017-07-29T08:02:50.579Z,16.47
2017-07-29T08:03:51.196Z,16.50
2017-07-29T08:04:51.827Z,16.56
2017-07-29T08:05:52.446Z,16.58
2017-07-29T08:06:53.400Z,16.56
2017-07-29T08:07:54.019Z,16.65
2017-07-29T08:08:54.640Z,16.66
2017-07-29T08:09:55.334Z,16.65
2017-07-29T08:10:55.966Z,16.79
2017-07-29T08:11:56.922Z,16.89
2017-07-29T08:12:57.545Z,16.83
2017-07-29T08:13:58.213Z,16.87
2017-07-29T08:14:58.840Z,16.87
2017-07-29T08:15:59.498Z,16.86
2017-07-29T08:17:00.423Z,16.89
2017-07-29T08:18:01.048Z,16.86
2017-07-29T08:19:01.670Z,16.93
2017-07-29T08:20:02.296Z,16.91
2017-07-29T08:21:03.219Z,16.97
2017-07-29T08:22:04.143Z,16.94
2017-07-29T08:23:05.062Z,16.90
2017-07-29T08:24:05.989Z,16.93
2017-07-29T08:25:06.609Z,16.96
2017-07-29T08:26:07.481Z,17.01
2017-07-29T08:27:08.104Z,16.97
2017-07-29T08:28:08.724Z,16.89
2017-07-29T08:29:09.377Z,16.91
2017-07-29T08:30:09.998Z,16.86
2017-07-29T08:31:10.868Z,16.89
2017-07-29T08:32:11.493Z,16.90
2017-07-29T08:33:12.112Z,16.96
2017-07-29T08:34:12.733Z,16.97
2017-07-29T08:35:13.354Z,17.01
2017-07-29T08:36:14.277Z,17.14
2017-07-29T08:37:14.894Z,17.05
2017-07-29T08:38:15.515Z,17.08
2017-07-29T08:39:16.135Z,17.08
2017-07-29T08:40:16.794Z,17.05
2017-07-29T08:41:17.668Z,17.08
2017-07-29T08:42:18.292Z,17.05
2017-07-29T08:43:18.909Z,17.08
2017-07-29T08:44:19.534Z,17.27
2017-07-29T08:45:20.400Z,17.30
2017-07-29T08:46:21.323Z,17.33
2017-07-29T08:47:21.976Z,17.44
2017-07-29T08:48:22.594Z,17.51
2017-07-29T08:49:23.215Z,17.51
2017-07-29T08:50:23.835Z,17.44
2017-07-29T08:51:24.707Z,17.56
2017-07-29T08:52:25.332Z,17.63
2017-07-29T08:53:25.955Z,17.68
2017-07-29T08:54:26.577Z,17.72
2017-07-29T08:55:27.195Z,17.76
2017-07-29T08:56:28.124Z,17.74
2017-07-29T08:57:28.743Z,17.79
2017-07-29T08:58:29.362Z,17.80
2017-07-29T08:59:30.010Z,17.83
2017-07-29T09:00:30.606Z,17.92
2017-07-29T09:01:31.477Z,18.03
2017-07-29T09:02:32.099Z,18.04
2017-07-29T09:03:32.718Z,18.11
2017-07-29T09:04:33.339Z,18.18
2017-07-29T09:05:33.962Z,18.19
2017-07-29T09:06:34.883Z,18.28
2017-07-29T09:07:35.757Z,18.37
2017-07-29T09:08:36.678Z,18.44
2017-07-29T09:09:37.548Z,18.37
2017-07-29T09:10:38.173Z,18.40
2017-07-29T09:11:39.097Z,18.56
2017-07-29T09:12:39.725Z,18.58
2017-07-29T09:13:40.643Z,18.60
2017-07-29T09:14:41.265Z,18.47
2017-07-29T09:15:42.188Z,18.50
2017-07-29T09:16:43.114Z,18.49
2017-07-29T09:17:44.025Z,18.35
2017-07-29T09:18:44.894Z,18.45
2017-07-29T09:19:45.764Z,18.44
2017-07-29T09:20:46.636Z,18.49
2017-07-29T09:21:47.508Z,18.37
2017-07-29T09:22:48.128Z,18.52
2017-07-29T09:23:49.001Z,18.50
2017-07-29T09:24:49.626Z,18.59
2017-07-29T09:25:50.281Z,18.62
2017-07-29T09:26:51.157Z,18.60
2017-07-29T09:27:51.774Z,18.70
2017-07-29T09:28:52.396Z,18.74
2017-07-29T09:29:53.273Z,18.75
2017-07-29T09:30:53.894Z,18.80
2017-07-29T09:31:54.515Z,18.83
2017-07-29T09:32:55.438Z,18.90
2017-07-29T09:33:56.312Z,18.96
2017-07-29T09:34:57.268Z,19.02
2017-07-29T09:35:57.891Z,19.09
2017-07-29T09:36:58.518Z,19.15
2017-07-29T09:37:59.136Z,19.07
2017-07-29T09:38:59.757Z,19.14
2017-07-29T09:40:00.680Z,19.11
2017-07-29T09:41:01.309Z,19.16
2017-07-29T09:42:02.179Z,19.16
2017-07-29T09:43:03.052Z,19.21
2017-07-29T09:44:03.979Z,19.34
2017-07-29T09:45:04.599Z,19.34
2017-07-29T09:46:05.523Z,19.36
2017-07-29T09:47:06.143Z,19.56
2017-07-29T09:48:07.017Z,19.64
2017-07-29T09:49:07.889Z,19.96
2017-07-29T09:50:08.816Z,19.99
2017-07-29T09:51:09.437Z,19.99
2017-07-29T09:52:10.059Z,19.99
2017-07-29T09:53:10.687Z,19.91
2017-07-29T09:54:11.606Z,19.88
2017-07-29T09:55:12.531Z,19.86
2017-07-29T09:56:13.159Z,19.85
2017-07-29T09:57:13.777Z,19.85
2017-07-29T09:58:14.405Z,19.89
2017-07-29T09:59:15.276Z,19.79
2017-07-29T10:00:16.200Z,19.86
2017-07-29T10:01:16.822Z,19.95
2017-07-29T10:02:17.446Z,20.11
2017-07-29T10:03:18.074Z,20.16
2017-07-29T10:04:18.947Z,20.28
2017-07-29T10:05:19.903Z,20.24
2017-07-29T10:06:20.808Z,20.22
2017-07-29T10:07:21.434Z,20.14
2017-07-29T10:08:22.055Z,20.06
2017-07-29T10:09:22.681Z,20.14
2017-07-29T10:10:23.335Z,20.06
2017-07-29T10:11:24.258Z,20.04
2017-07-29T10:12:25.132Z,20.26
2017-07-29T10:13:25.755Z,20.34
2017-07-29T10:14:26.678Z,20.43
2017-07-29T10:15:27.303Z,20.51
2017-07-29T10:16:27.958Z,20.43
2017-07-29T10:17:28.914Z,20.39
2017-07-29T10:18:29.785Z,20.34
2017-07-29T10:19:30.659Z,20.43
2017-07-29T10:20:31.280Z,20.62
2017-07-29T10:21:32.204Z,20.77
2017-07-29T10:22:33.133Z,20.92
2017-07-29T10:23:33.753Z,20.88
2017-07-29T10:24:34.380Z,20.87
2017-07-29T10:25:35.004Z,20.96
2017-07-29T10:26:35.626Z,21.07
2017-07-29T10:27:36.550Z,21.05
2017-07-29T10:28:37.173Z,21.03
2017-07-29T10:29:37.796Z,21.15
2017-07-29T10:30:38.419Z,21.09
2017-07-29T10:31:39.078Z,21.20
2017-07-29T10:32:39.955Z,21.05
2017-07-29T10:33:40.876Z,21.05
2017-07-29T10:34:41.753Z,21.11
2017-07-29T10:35:42.406Z,21.27
2017-07-29T10:36:43.029Z,21.35
2017-07-29T10:37:43.905Z,21.43
2017-07-29T10:38:44.535Z,21.35
2017-07-29T10:39:45.155Z,21.18
2017-07-29T10:40:45.809Z,21.06
2017-07-29T10:41:46.432Z,20.97
2017-07-29T10:42:47.345Z,20.99
2017-07-29T10:43:47.966Z,21.05
2017-07-29T10:44:48.890Z,21.21
2017-07-29T10:45:49.854Z,21.18
2017-07-29T10:46:50.726Z,21.35
2017-07-29T10:47:51.351Z,21.40
2017-07-29T10:48:51.977Z,21.35
2017-07-29T10:49:52.635Z,21.46
2017-07-29T10:50:53.514Z,21.45
2017-07-29T10:51:54.171Z,21.51
2017-07-29T10:52:54.802Z,21.46
2017-07-29T10:53:55.424Z,21.36
2017-07-29T10:54:56.298Z,21.32
2017-07-29T10:55:56.953Z,21.39
2017-07-29T10:56:57.829Z,21.45
2017-07-29T10:57:58.487Z,21.52
2017-07-29T10:58:59.110Z,21.58
2017-07-29T10:59:59.733Z,21.60
2017-07-29T11:01:00.659Z,21.66
2017-07-29T11:02:01.283Z,21.79
2017-07-29T11:03:01.920Z,21.98
2017-07-29T11:04:02.542Z,21.92
2017-07-29T11:05:03.206Z,22.07
2017-07-29T11:06:04.077Z,21.91
2017-07-29T11:07:04.736Z,21.95
2017-07-29T11:08:05.360Z,21.83
2017-07-29T11:09:05.989Z,21.70
2017-07-29T11:10:06.658Z,21.64
2017-07-29T11:11:07.573Z,21.62
2017-07-29T11:12:08.201Z,21.61
2017-07-29T11:13:08.822Z,21.64
2017-07-29T11:14:09.445Z,21.76
2017-07-29T11:15:10.102Z,22.04
2017-07-29T11:16:11.025Z,21.93
2017-07-29T11:17:11.657Z,21.98
2017-07-29T11:18:12.276Z,22.07
2017-07-29T11:19:12.900Z,22.20
2017-07-29T11:20:13.528Z,22.32
2017-07-29T11:21:14.487Z,22.32
2017-07-29T11:22:15.119Z,22.32
2017-07-29T11:23:15.740Z,22.29
2017-07-29T11:24:16.369Z,22.32
2017-07-29T11:25:16.990Z,22.32
2017-07-29T11:26:17.898Z,22.62
2017-07-29T11:27:18.527Z,22.84
2017-07-29T11:28:19.151Z,22.93
2017-07-29T11:29:19.782Z,22.90
2017-07-29T11:30:20.440Z,22.68
2017-07-29T11:31:21.369Z,22.45
2017-07-29T11:32:21.991Z,22.39
2017-07-29T11:33:22.614Z,22.32
2017-07-29T11:34:23.245Z,22.29
2017-07-29T11:35:23.864Z,22.35
2017-07-29T11:36:24.795Z,22.50
2017-07-29T11:37:25.418Z,22.63
2017-07-29T11:38:26.042Z,22.59
2017-07-29T11:39:26.665Z,22.59
2017-07-29T11:40:27.288Z,22.54
2017-07-29T11:41:28.170Z,22.70
2017-07-29T11:42:28.793Z,22.85
2017-07-29T11:43:29.459Z,22.80
2017-07-29T11:44:30.081Z,22.83
2017-07-29T11:45:30.710Z,22.93
2017-07-29T11:46:31.638Z,22.94
2017-07-29T11:47:32.260Z,23.00
2017-07-29T11:48:32.885Z,23.06
2017-07-29T11:49:33.512Z,22.99
2017-07-29T11:50:34.144Z,22.91
2017-07-29T11:51:35.017Z,23.03
2017-07-29T11:52:35.646Z,23.03
2017-07-29T11:53:36.268Z,22.98
2017-07-29T11:54:36.893Z,22.98
2017-07-29T11:55:37.522Z,23.06
2017-07-29T11:56:38.492Z,23.00
2017-07-29T11:57:39.115Z,22.99
2017-07-29T11:58:39.739Z,23.25
2017-07-29T11:59:40.370Z,23.46
2017-07-29T12:00:41.000Z,23.47
2017-07-29T12:01:41.923Z,23.37
2017-07-29T12:02:42.591Z,23.39
2017-07-29T12:03:43.207Z,23.43
2017-07-29T12:04:43.840Z,23.46
2017-07-29T12:05:44.460Z,23.58
2017-07-29T12:06:45.386Z,23.61
2017-07-29T12:07:46.046Z,23.80
2017-07-29T12:08:46.672Z,23.83
2017-07-29T12:09:47.332Z,23.95
2017-07-29T12:10:47.959Z,24.01
2017-07-29T12:11:48.885Z,24.17
2017-07-29T12:12:49.511Z,24.18
2017-07-29T12:13:50.137Z,24.16
2017-07-29T12:14:50.770Z,24.20
2017-07-29T12:15:51.395Z,24.23
2017-07-29T12:16:52.271Z,24.05
2017-07-29T12:17:52.897Z,24.01
2017-07-29T12:18:53.526Z,24.14
2017-07-29T12:19:54.158Z,24.21
2017-07-29T12:20:54.789Z,24.24
2017-07-29T12:21:55.716Z,24.23
2017-07-29T12:22:56.348Z,24.29
2017-07-29T12:23:56.968Z,24.17
2017-07-29T12:24:57.593Z,24.13
2017-07-29T12:25:58.218Z,24.03
2017-07-29T12:26:59.100Z,24.02
2017-07-29T12:27:59.725Z,24.05
2017-07-29T12:29:00.349Z,24.02
2017-07-29T12:30:00.977Z,23.99
2017-07-29T12:31:01.636Z,23.88
2017-07-29T12:32:02.546Z,23.91
2017-07-29T12:33:03.170Z,23.83
2017-07-29T12:34:03.795Z,23.73
2017-07-29T12:35:04.422Z,23.59
2017-07-29T12:36:05.054Z,23.48
2017-07-29T12:37:05.976Z,23.31
2017-07-29T12:38:06.602Z,23.08
2017-07-29T12:39:07.262Z,22.80
2017-07-29T12:40:07.888Z,22.53
2017-07-29T12:41:08.519Z,22.53
2017-07-29T12:42:09.394Z,22.41
2017-07-29T12:43:10.022Z,22.39
2017-07-29T12:44:10.680Z,22.39
2017-07-29T12:45:11.308Z,22.33
2017-07-29T12:46:11.937Z,22.26
2017-07-29T12:47:12.896Z,22.23
2017-07-29T12:48:13.522Z,22.29
2017-07-29T12:49:14.152Z,22.35
2017-07-29T12:50:14.779Z,22.32
2017-07-29T12:51:15.409Z,22.32
2017-07-29T12:52:16.286Z,22.29
2017-07-29T12:53:16.909Z,22.39
2017-07-29T12:54:17.533Z,22.32
2017-07-29T12:55:18.157Z,22.28
2017-07-29T12:56:18.784Z,22.38
2017-07-29T12:57:19.708Z,22.39
2017-07-29T12:58:20.334Z,22.41
2017-07-29T12:59:20.956Z,22.45
2017-07-29T13:00:21.590Z,22.48
2017-07-29T13:01:22.218Z,22.57